createdAt,value
2022-08-28T00:01:11.741Z,84.32
2022-08-28T00:03:40.992Z,84.10
2022-08-28T00:06:12.136Z,87.72
2022-08-28T00:08:41.585Z,84.75
2022-08-28T00:11:10.597Z,91.20
2022-08-28T00:13:47.728Z,86.70
2022-08-28T00:16:18.299Z,93.18
2022-08-28T00:18:48.023Z,90.88
2022-08-28T00:21:17.458Z,91.00
2022-08-28T00:23:46.690Z,91.05
2022-08-28T00:26:41.470Z,98.75
2022-08-28T00:29:10.797Z,93.30
2022-08-28T00:31:40.312Z,91.38
2022-08-28T00:34:10.905Z,95.68
2022-08-28T00:36:40.971Z,96.20
2022-08-28T00:39:11.222Z,89.25
2022-08-28T00:41:42.898Z,88.75
2022-08-28T00:44:21.272Z,91.82
2022-08-28T00:46:53.636Z,96.35
2022-08-28T00:49:31.859Z,91.35
2022-08-28T00:52:08.245Z,93.72
2022-08-28T00:54:58.592Z,99.15
2022-08-28T00:57:33.048Z,95.85
2022-08-28T01:00:07.807Z,93.47
2022-08-28T01:02:37.031Z,84.47
2022-08-28T01:05:09.527Z,93.78
2022-08-28T01:07:39.282Z,88.85
2022-08-28T01:10:12.381Z,87.60
2022-08-28T01:12:44.803Z,87.97
2022-08-28T01:15:18.882Z,83.00
2022-08-28T01:17:58.720Z,87.28
2022-08-28T01:23:15.056Z,81.70
2022-08-28T01:25:46.387Z,69.93
2022-08-28T01:28:20.649Z,78.90
2022-08-28T01:30:56.240Z,69.13
2022-08-28T01:33:28.180Z,67.85
2022-08-28T01:35:58.915Z,61.95
2022-08-28T01:38:28.094Z,67.32
2022-08-28T01:41:05.087Z,61.67
2022-08-28T01:43:34.411Z,57.55
2022-08-28T01:46:06.770Z,59.25
2022-08-28T01:48:38.891Z,53.55
2022-08-28T01:51:08.507Z,51.90
2022-08-28T01:53:37.881Z,55.38
2022-08-28T01:56:11.820Z,56.47
2022-08-28T01:58:42.184Z,57.60
2022-08-28T02:03:48.909Z,51.33
2022-08-28T02:06:19.677Z,55.03
2022-08-28T02:08:55.382Z,52.67
2022-08-28T02:11:32.426Z,58.33
2022-08-28T02:14:08.052Z,57.42
2022-08-28T02:16:37.341Z,61.88
2022-08-28T02:19:11.781Z,53.75
2022-08-28T02:21:41.233Z,57.63
2022-08-28T02:24:10.802Z,54.00
2022-08-28T02:26:42.930Z,50.65
2022-08-28T02:29:12.612Z,56.72
2022-08-28T02:31:42.199Z,53.67
2022-08-28T02:34:11.318Z,56.95
2022-08-28T02:36:43.333Z,56.10
2022-08-28T02:39:12.821Z,56.03
2022-08-28T02:41:44.338Z,59.28
2022-08-28T02:44:19.015Z,61.40
2022-08-28T02:46:49.109Z,64.38
2022-08-28T02:49:18.508Z,58.47
2022-08-28T02:54:28.549Z,59.38
2022-08-28T02:57:00.012Z,56.00
2022-08-28T02:59:29.918Z,47.97
2022-08-28T03:02:00.499Z,55.72
2022-08-28T03:04:29.565Z,57.47
2022-08-28T03:07:04.033Z,57.47
2022-08-28T03:09:33.200Z,51.67
2022-08-28T03:12:04.469Z,56.90
2022-08-28T03:14:33.618Z,55.90
2022-08-28T03:17:03.119Z,55.22
2022-08-28T03:19:32.420Z,54.35
2022-08-28T03:22:01.465Z,49.25
2022-08-28T03:24:42.574Z,54.25
2022-08-28T03:27:13.706Z,54.13
2022-08-28T03:29:43.050Z,54.35
2022-08-28T03:34:47.214Z,53.65
2022-08-28T03:37:16.770Z,54.05
2022-08-28T03:39:45.883Z,53.15
2022-08-28T03:42:17.012Z,50.85
2022-08-28T03:44:48.770Z,54.17
2022-08-28T03:47:18.030Z,52.47
2022-08-28T03:49:49.078Z,59.50
2022-08-28T03:52:18.471Z,53.08
2022-08-28T03:54:47.688Z,57.13
2022-08-28T03:57:21.459Z,54.88
2022-08-28T03:59:52.804Z,56.55
2022-08-28T04:02:27.191Z,58.22
2022-08-28T04:04:56.562Z,53.80
2022-08-28T04:07:25.625Z,59.55
2022-08-28T04:10:00.234Z,58.28
2022-08-28T04:12:34.494Z,51.47
2022-08-28T04:15:06.934Z,53.38
2022-08-28T04:20:06.402Z,59.33
2022-08-28T04:22:41.232Z,59.33
2022-08-28T04:25:11.075Z,59.33
2022-08-28T04:27:42.297Z,59.25
2022-08-28T04:30:13.142Z,54.78
2022-08-28T04:32:42.684Z,55.10
2022-08-28T04:35:13.331Z,57.80
2022-08-28T04:37:48.371Z,56.77
2022-08-28T04:40:18.909Z,58.00
2022-08-28T04:42:55.103Z,55.95
2022-08-28T04:45:29.299Z,58.63
2022-08-28T04:47:58.598Z,52.58
2022-08-28T04:50:29.590Z,56.30
2022-08-28T04:53:03.715Z,58.05
2022-08-28T04:55:52.296Z,60.38
2022-08-28T04:58:30.458Z,61.97
2022-08-28T05:01:08.449Z,53.35
2022-08-28T05:03:37.824Z,63.00
2022-08-28T05:06:07.659Z,59.15
2022-08-28T05:08:37.053Z,57.53
2022-08-28T05:11:32.909Z,62.38
2022-08-28T05:14:11.601Z,58.50
2022-08-28T05:16:46.380Z,61.47
2022-08-28T05:19:16.115Z,63.40
2022-08-28T05:21:50.527Z,61.80
2022-08-28T05:24:20.869Z,62.80
2022-08-28T05:26:50.199Z,64.55
2022-08-28T05:29:26.523Z,66.90
2022-08-28T05:31:55.868Z,68.05
2022-08-28T05:34:25.264Z,67.10
2022-08-28T05:36:59.641Z,72.55
2022-08-28T05:39:28.783Z,68.13
2022-08-28T05:42:02.903Z,67.95
2022-08-28T05:44:34.255Z,66.95
2022-08-28T05:47:08.479Z,71.05
2022-08-28T05:49:37.677Z,68.82
2022-08-28T05:52:07.109Z,61.53
2022-08-28T05:54:37.761Z,70.35
2022-08-28T05:57:07.336Z,65.97
2022-08-28T05:59:38.663Z,68.03
2022-08-28T06:02:07.990Z,66.32
2022-08-28T06:04:40.108Z,63.13
2022-08-28T06:07:11.714Z,76.05
2022-08-28T06:09:44.645Z,66.90
2022-08-28T06:12:15.273Z,67.20
2022-08-28T06:14:47.148Z,68.85
2022-08-28T06:17:16.283Z,74.97
2022-08-28T06:19:49.188Z,68.28
2022-08-28T06:22:18.394Z,71.45
2022-08-28T06:24:47.665Z,66.78
2022-08-28T06:27:16.820Z,64.18
2022-08-28T06:29:48.112Z,62.90
2022-08-28T06:32:17.658Z,66.53
2022-08-28T06:34:46.795Z,68.47
2022-08-28T06:37:15.952Z,65.28
2022-08-28T06:39:50.134Z,67.32
2022-08-28T06:42:19.679Z,66.60
2022-08-28T06:44:51.048Z,65.97
2022-08-28T06:49:49.383Z,62.88
2022-08-28T06:52:18.762Z,70.80
2022-08-28T06:54:55.681Z,61.70
2022-08-28T06:57:26.230Z,63.10
2022-08-28T07:00:00.481Z,63.15
2022-08-28T07:02:31.406Z,65.38
2022-08-28T07:05:00.773Z,66.75
2022-08-28T07:07:32.579Z,65.63
2022-08-28T07:10:07.127Z,61.38
2022-08-28T07:12:36.517Z,64.32
2022-08-28T07:15:14.235Z,67.60
2022-08-28T07:17:43.924Z,64.20
2022-08-28T07:20:18.001Z,57.92
2022-08-28T07:22:47.202Z,57.67
2022-08-28T07:25:26.428Z,58.85
2022-08-28T07:27:58.239Z,62.42
2022-08-28T07:30:30.993Z,65.40
2022-08-28T07:33:00.163Z,68.10
2022-08-28T07:35:29.258Z,63.13
2022-08-28T07:37:59.288Z,65.97
2022-08-28T07:40:28.482Z,65.55
2022-08-28T07:43:10.666Z,65.25
2022-08-28T07:48:17.554Z,65.35
2022-08-28T07:50:50.542Z,63.33
2022-08-28T07:53:19.865Z,69.05
2022-08-28T07:55:59.262Z,72.07
2022-08-28T07:58:34.123Z,57.85
2022-08-28T08:01:05.898Z,61.38
2022-08-28T08:03:35.561Z,67.82
2022-08-28T08:06:06.723Z,63.38
2022-08-28T08:08:36.295Z,59.67
2022-08-28T08:11:08.612Z,55.10
2022-08-28T08:13:41.772Z,55.90
2022-08-28T08:16:15.218Z,63.60
2022-08-28T08:18:50.864Z,55.97
2022-08-28T08:21:30.005Z,62.15
2022-08-28T08:23:59.859Z,57.03
2022-08-28T08:26:30.817Z,60.00
2022-08-28T08:29:00.493Z,57.03
2022-08-28T08:31:33.780Z,61.75
2022-08-28T08:34:06.700Z,60.38
2022-08-28T08:36:38.024Z,62.08
2022-08-28T08:39:09.706Z,55.83
2022-08-28T08:41:47.634Z,56.63
2022-08-28T08:44:33.206Z,55.13
2022-08-28T08:47:15.312Z,61.72
2022-08-28T08:49:52.598Z,63.67
2022-08-28T08:52:31.881Z,59.28
2022-08-28T08:55:10.553Z,58.70
2022-08-28T08:57:46.143Z,63.03
2022-08-28T09:00:19.941Z,62.60
2022-08-28T09:02:58.932Z,52.63
2022-08-28T09:05:43.130Z,52.00
2022-08-28T09:08:23.627Z,56.53
2022-08-28T09:11:04.633Z,46.45
2022-08-28T09:13:47.225Z,43.05
2022-08-28T09:16:33.517Z,43.22
2022-08-28T09:19:05.253Z,36.60
2022-08-28T09:21:36.922Z,42.03
2022-08-28T09:24:14.079Z,36.63
2022-08-28T09:26:48.421Z,41.58
2022-08-28T09:29:20.961Z,45.60
2022-08-28T09:34:35.485Z,43.42
2022-08-28T09:37:17.006Z,38.50
2022-08-28T09:39:48.863Z,26.45
2022-08-28T09:42:37.267Z,26.15
2022-08-28T09:45:15.924Z,20.02
2022-08-28T09:47:53.568Z,20.17
2022-08-28T09:50:37.047Z,18.27
2022-08-28T09:53:21.948Z,18.95
2022-08-28T09:56:05.761Z,22.40
2022-08-28T09:58:39.092Z,17.90
2022-08-28T10:01:24.004Z,19.27
2022-08-28T10:04:09.456Z,19.88
2022-08-28T10:06:43.656Z,19.77
2022-08-28T10:09:23.396Z,22.02
2022-08-28T10:11:59.925Z,15.45
2022-08-28T10:14:46.583Z,15.75
2022-08-28T10:17:27.457Z,17.95
2022-08-28T10:20:05.505Z,15.75
2022-08-28T10:22:46.547Z,20.73
2022-08-28T10:25:28.868Z,17.27
2022-08-28T10:28:23.185Z,19.77
2022-08-28T10:31:04.968Z,17.88
2022-08-28T10:33:56.063Z,15.45
2022-08-28T10:36:34.671Z,15.98
2022-08-28T10:39:24.114Z,20.30
2022-08-28T10:41:58.662Z,26.50
2022-08-28T10:44:37.330Z,19.20
2022-08-28T10:47:09.496Z,22.95
2022-08-28T10:49:42.871Z,19.90
2022-08-28T10:52:17.614Z,23.80
2022-08-28T10:54:55.028Z,24.63
2022-08-28T10:57:39.247Z,21.45
2022-08-28T11:00:13.518Z,26.80
2022-08-28T11:02:46.461Z,25.30
2022-08-28T11:05:16.461Z,20.00
2022-08-28T11:07:51.301Z,21.85
2022-08-28T11:10:42.986Z,18.13
2022-08-28T11:13:13.478Z,25.08
2022-08-28T11:15:55.017Z,31.33
2022-08-28T11:18:50.683Z,20.13
2022-08-28T11:21:26.230Z,20.42
2022-08-28T11:24:06.917Z,23.00
2022-08-28T11:27:00.794Z,19.77
2022-08-28T11:30:06.243Z,20.85
2022-08-28T11:33:03.071Z,21.67
2022-08-28T11:35:52.288Z,22.80
2022-08-28T11:38:54.043Z,26.23
2022-08-28T11:41:30.644Z,27.92
2022-08-28T11:44:28.172Z,23.05
2022-08-28T11:47:37.778Z,19.90
2022-08-28T11:50:16.577Z,22.52
2022-08-28T11:53:18.515Z,19.58
2022-08-28T11:56:06.822Z,23.05
2022-08-28T11:58:43.579Z,19.60
2022-08-28T12:01:16.154Z,23.50
2022-08-28T12:03:55.679Z,20.42
2022-08-28T12:07:13.349Z,22.08
2022-08-28T12:09:50.629Z,22.83
2022-08-28T12:12:49.685Z,20.75
2022-08-28T12:15:41.309Z,19.17
2022-08-28T12:18:55.506Z,21.42
2022-08-28T12:21:28.209Z,18.30
2022-08-28T12:24:09.744Z,21.73
2022-08-28T12:26:44.175Z,26.25
2022-08-28T12:29:29.654Z,18.30
2022-08-28T12:32:19.549Z,18.85
2022-08-28T12:35:08.359Z,19.67
2022-08-28T12:37:51.648Z,20.25
2022-08-28T12:40:25.902Z,19.20
2022-08-28T12:42:59.705Z,22.48
2022-08-28T12:45:34.358Z,18.63
2022-08-28T12:48:07.473Z,20.25
2022-08-28T12:57:18.105Z,15.57
2022-08-28T12:59:48.935Z,18.55
2022-08-28T13:02:27.327Z,16.65
2022-08-28T13:05:00.749Z,17.38
2022-08-28T13:07:33.103Z,20.50
2022-08-28T13:10:05.857Z,15.63
2022-08-28T13:12:55.155Z,19.38
2022-08-28T13:15:49.281Z,20.60
2022-08-28T13:18:37.007Z,27.83
2022-08-28T13:21:35.205Z,19.15
2022-08-28T13:24:26.972Z,18.70
2022-08-28T13:27:06.046Z,23.45
2022-08-28T13:29:39.058Z,26.15
2022-08-28T13:32:10.835Z,18.83
2022-08-28T13:34:45.527Z,18.45
2022-08-28T13:37:48.932Z,20.05
2022-08-28T13:43:16.381Z,23.48
2022-08-28T13:45:49.934Z,24.27
2022-08-28T13:48:22.000Z,24.45
2022-08-28T13:50:54.532Z,27.58
2022-08-28T13:53:29.764Z,27.83
2022-08-28T13:56:02.293Z,26.13
2022-08-28T13:58:31.726Z,24.95
2022-08-28T14:01:03.329Z,33.17
2022-08-28T14:03:37.611Z,35.33
2022-08-28T14:06:11.154Z,33.17
2022-08-28T14:08:40.661Z,35.90
2022-08-28T14:11:12.647Z,41.72
2022-08-28T14:13:47.160Z,44.35
2022-08-28T14:16:27.036Z,41.38
2022-08-28T14:19:01.507Z,41.67
2022-08-28T14:21:30.842Z,40.58
2022-08-28T14:24:00.951Z,41.72
2022-08-28T14:26:31.280Z,50.17
2022-08-28T14:29:09.781Z,39.90
2022-08-28T14:31:43.389Z,39.60
2022-08-28T14:34:14.801Z,39.67
2022-08-28T14:36:55.208Z,39.90
2022-08-28T14:39:25.779Z,45.03
2022-08-28T14:41:55.961Z,43.53
2022-08-28T14:44:26.569Z,38.80
2022-08-28T14:46:58.709Z,43.47
2022-08-28T14:49:28.907Z,41.55
2022-08-28T14:52:03.160Z,41.53
2022-08-28T14:54:32.318Z,38.17
2022-08-28T14:57:01.601Z,45.13
2022-08-28T14:59:35.914Z,37.67
2022-08-28T15:02:07.428Z,43.30
2022-08-28T15:04:43.273Z,42.97
2022-08-28T15:07:13.596Z,43.00
2022-08-28T15:09:48.046Z,41.72
2022-08-28T15:12:17.833Z,42.10
2022-08-28T15:14:54.621Z,38.55
2022-08-28T15:17:34.332Z,44.53
2022-08-28T15:20:04.639Z,44.42
2022-08-28T15:25:09.315Z,42.55
2022-08-28T15:27:40.209Z,43.00
2022-08-28T15:30:19.963Z,49.55
2022-08-28T15:32:51.242Z,55.05
2022-08-28T15:37:49.577Z,43.55
2022-08-28T15:40:31.775Z,52.92
2022-08-28T15:43:01.045Z,48.67
2022-08-28T15:45:30.367Z,55.08
2022-08-28T15:48:01.517Z,51.42
2022-08-28T15:50:30.660Z,48.65
2022-08-28T15:53:00.041Z,53.50
2022-08-28T15:55:30.158Z,54.05
2022-08-28T15:57:59.330Z,53.35
2022-08-28T16:00:42.448Z,54.08
2022-08-28T16:03:13.983Z,56.78
2022-08-28T16:08:12.341Z,52.72
2022-08-28T16:10:47.030Z,53.72
2022-08-28T16:13:16.857Z,51.92
2022-08-28T16:15:46.160Z,52.70
2022-08-28T16:18:19.272Z,52.35
2022-08-28T16:20:48.698Z,62.60
2022-08-28T16:23:18.635Z,60.95
2022-08-28T16:25:48.598Z,53.28
2022-08-28T16:28:17.714Z,57.65
2022-08-28T16:30:52.093Z,52.42
2022-08-28T16:33:25.462Z,58.10
2022-08-28T16:35:56.615Z,53.42
2022-08-28T16:38:26.113Z,50.88
2022-08-28T16:40:55.377Z,52.03
2022-08-28T16:43:26.201Z,59.72
2022-08-28T16:45:55.890Z,57.00
2022-08-28T16:48:27.227Z,72.13
2022-08-28T16:53:27.307Z,69.25
2022-08-28T16:55:58.292Z,67.80
2022-08-28T16:58:27.713Z,71.63
2022-08-28T17:00:57.402Z,79.78
2022-08-28T17:03:34.149Z,73.78
2022-08-28T17:06:08.806Z,82.18
2022-08-28T17:08:38.283Z,83.13
2022-08-28T17:11:08.360Z,94.03
2022-08-28T17:13:38.469Z,87.38
2022-08-28T17:16:08.651Z,103.97
2022-08-28T17:18:47.513Z,110.13
2022-08-28T17:21:38.529Z,107.97
2022-08-28T17:24:16.732Z,118.93
2022-08-28T17:26:49.143Z,110.78
2022-08-28T17:29:18.264Z,114.03
2022-08-28T17:31:47.598Z,117.43
2022-08-28T17:34:28.109Z,124.60
2022-08-28T17:37:02.879Z,127.28
2022-08-28T17:39:32.192Z,128.80
2022-08-28T17:42:01.869Z,127.15
2022-08-28T17:44:31.406Z,133.98
2022-08-28T17:47:00.590Z,129.55
2022-08-28T17:49:31.749Z,130.48
2022-08-28T17:52:01.755Z,132.70
2022-08-28T17:54:31.068Z,136.60
2022-08-28T17:57:02.860Z,133.20
2022-08-28T17:59:37.146Z,129.40
2022-08-28T18:02:07.598Z,130.05
2022-08-28T18:07:21.287Z,123.63
2022-08-28T18:09:53.023Z,121.68
2022-08-28T18:12:27.246Z,125.60
2022-08-28T18:14:56.587Z,128.30
2022-08-28T18:17:27.295Z,113.55
2022-08-28T18:20:00.254Z,117.97
2022-08-28T18:22:30.090Z,120.38
2022-08-28T18:25:00.029Z,122.47
2022-08-28T18:27:31.088Z,120.32
2022-08-28T18:30:02.654Z,118.22
2022-08-28T18:32:33.005Z,124.50
2022-08-28T18:35:04.316Z,111.57
2022-08-28T18:40:02.262Z,110.22
2022-08-28T18:42:32.043Z,111.40
2022-08-28T18:45:01.262Z,104.75
2022-08-28T18:47:30.538Z,99.50
2022-08-28T18:50:00.020Z,107.32
2022-08-28T18:52:41.420Z,100.28
2022-08-28T18:55:12.434Z,87.38
2022-08-28T19:00:12.222Z,84.10
2022-08-28T19:02:41.994Z,85.70
2022-08-28T19:05:12.034Z,80.70
2022-08-28T19:07:43.931Z,74.80
2022-08-28T19:10:32.157Z,75.88
2022-08-28T19:13:03.956Z,72.47
2022-08-28T19:15:34.515Z,77.78
2022-08-28T19:18:04.854Z,64.00
2022-08-28T19:20:35.369Z,75.93
2022-08-28T19:23:11.380Z,70.30
2022-08-28T19:25:43.649Z,74.70
2022-08-28T19:28:13.766Z,63.08
2022-08-28T19:30:43.197Z,71.57
2022-08-28T19:33:12.909Z,72.07
2022-08-28T19:35:42.593Z,73.97
2022-08-28T19:38:13.777Z,68.85
2022-08-28T19:40:45.138Z,70.72
2022-08-28T19:43:16.757Z,72.15
2022-08-28T19:45:47.063Z,68.85
2022-08-28T19:48:16.497Z,69.05
2022-08-28T19:50:45.872Z,69.53
2022-08-28T19:53:17.369Z,68.93
2022-08-28T19:55:46.631Z,69.35
2022-08-28T19:58:16.110Z,65.55
2022-08-28T20:00:45.375Z,71.30
2022-08-28T20:03:14.741Z,69.18
2022-08-28T20:05:44.473Z,66.40
2022-08-28T20:08:14.275Z,65.45
2022-08-28T20:10:46.650Z,69.80
2022-08-28T20:13:25.930Z,66.18
2022-08-28T20:15:55.573Z,67.20
2022-08-28T20:18:27.829Z,66.95
2022-08-28T20:21:02.163Z,62.78
2022-08-28T20:23:31.173Z,73.43
2022-08-28T20:26:08.950Z,60.78
2022-08-28T20:28:38.237Z,58.50
2022-08-28T20:31:15.071Z,63.35
2022-08-28T20:33:45.470Z,58.55
2022-08-28T20:38:51.042Z,61.53
2022-08-28T20:41:28.943Z,64.43
2022-08-28T20:43:58.230Z,59.55
2022-08-28T20:46:28.538Z,63.72
2022-08-28T20:49:08.075Z,64.22
2022-08-28T20:51:50.275Z,59.75
2022-08-28T20:57:07.110Z,61.08
2022-08-28T20:59:49.083Z,60.45
2022-08-28T21:02:21.695Z,61.15
2022-08-28T21:04:56.597Z,60.90
2022-08-28T21:07:27.315Z,64.50
2022-08-28T21:10:05.657Z,59.65
2022-08-28T21:12:43.487Z,62.15
2022-08-28T21:15:19.928Z,64.85
2022-08-28T21:17:52.146Z,63.17
2022-08-28T21:20:22.089Z,61.00
2022-08-28T21:22:51.649Z,64.70
2022-08-28T21:25:27.574Z,61.72
2022-08-28T21:28:04.057Z,61.13
2022-08-28T21:30:33.910Z,67.57
2022-08-28T21:33:03.055Z,65.80
2022-08-28T21:35:32.287Z,60.80
2022-08-28T21:38:01.842Z,60.55
2022-08-28T21:40:31.031Z,65.00
2022-08-28T21:43:02.281Z,68.32
2022-08-28T21:45:38.209Z,67.95
2022-08-28T21:48:13.140Z,60.60
2022-08-28T21:50:44.380Z,60.67
2022-08-28T21:55:56.506Z,60.22
2022-08-28T21:58:27.625Z,60.37
2022-08-28T22:00:58.571Z,62.00
2022-08-28T22:03:30.255Z,67.82
2022-08-28T22:05:59.854Z,64.03
2022-08-28T22:08:29.409Z,60.00
2022-08-28T22:10:58.806Z,60.78
2022-08-28T22:13:29.966Z,57.63
2022-08-28T22:15:59.309Z,66.47
2022-08-28T22:18:32.056Z,61.92
2022-08-28T22:23:57.468Z,56.15
2022-08-28T22:26:36.740Z,58.47
2022-08-28T22:29:08.701Z,61.65
2022-08-28T22:31:46.187Z,58.10
2022-08-28T22:34:25.702Z,59.35
2022-08-28T22:36:54.846Z,56.58
2022-08-28T22:39:26.884Z,58.65
2022-08-28T22:41:56.256Z,64.75
2022-08-28T22:44:27.334Z,56.90
2022-08-28T22:46:56.541Z,60.97
2022-08-28T22:49:25.685Z,60.90
2022-08-28T22:51:54.964Z,64.68
2022-08-28T22:54:24.332Z,71.05
2022-08-28T22:56:53.518Z,59.33
2022-08-28T22:59:22.635Z,57.90
2022-08-28T23:01:54.545Z,57.58
2022-08-28T23:04:34.688Z,57.55
2022-08-28T23:07:09.336Z,55.20
2022-08-28T23:09:38.958Z,56.65
2022-08-28T23:12:09.298Z,54.55
2022-08-28T23:14:38.655Z,52.63
2022-08-28T23:17:10.007Z,52.58
2022-08-28T23:19:46.402Z,55.97
2022-08-28T23:22:16.124Z,57.80
2022-08-28T23:24:46.149Z,56.53
2022-08-28T23:27:35.447Z,59.03
2022-08-28T23:30:10.774Z,51.78
2022-08-28T23:32:42.239Z,50.38
2022-08-28T23:35:13.682Z,53.08
2022-08-28T23:37:48.043Z,56.95
2022-08-28T23:40:28.194Z,51.17
2022-08-28T23:42:58.969Z,55.97
2022-08-28T23:45:28.747Z,54.92
2022-08-28T23:48:06.933Z,53.85
2022-08-28T23:50:36.914Z,53.35
2022-08-28T23:53:06.463Z,50.17
2022-08-28T23:55:49.501Z,55.25
2022-08-28T23:58:23.776Z,57.75
